createdAt,value
2017-07-26T00:01:34.049Z,24.60
2017-07-26T00:04:01.587Z,26.50
2017-07-26T00:06:29.139Z,23.83
2017-07-26T00:08:56.735Z,22.03
2017-07-26T00:11:24.286Z,27.97
2017-07-26T00:13:51.850Z,28.67
2017-07-26T00:16:19.393Z,27.33
2017-07-26T00:18:46.961Z,28.63
2017-07-26T00:21:14.538Z,23.20
2017-07-26T00:23:42.077Z,23.53
2017-07-26T00:26:09.620Z,26.47
2017-07-26T00:28:37.192Z,36.80
2017-07-26T00:31:04.734Z,27.50
2017-07-26T00:33:32.302Z,27.90
2017-07-26T00:35:59.871Z,25.23
2017-07-26T00:38:27.409Z,28.03
2017-07-26T00:40:54.990Z,29.00
2017-07-26T00:43:22.531Z,37.73
2017-07-26T00:45:50.062Z,27.50
2017-07-26T00:48:18.393Z,33.77
2017-07-26T00:50:45.971Z,34.17
2017-07-26T00:53:13.506Z,35.83
2017-07-26T00:55:41.049Z,31.80
2017-07-26T00:58:08.636Z,36.53
2017-07-26T01:00:36.177Z,34.40
2017-07-26T01:03:03.710Z,31.80
2017-07-26T01:05:31.282Z,36.73
2017-07-26T01:07:58.820Z,31.60
2017-07-26T01:10:27.165Z,35.17
2017-07-26T01:12:54.703Z,48.97
2017-07-26T01:15:22.237Z,34.73
2017-07-26T01:17:49.830Z,36.10
2017-07-26T01:20:17.365Z,45.40
2017-07-26T01:22:44.902Z,44.43
2017-07-26T01:25:12.481Z,43.20
2017-07-26T01:27:40.023Z,46.33
2017-07-26T01:30:07.566Z,38.57
2017-07-26T01:32:35.899Z,46.37
2017-07-26T01:35:03.438Z,37.30
2017-07-26T01:37:31.006Z,47.93
2017-07-26T01:39:58.546Z,41.23
2017-07-26T01:42:26.116Z,36.73
2017-07-26T01:44:53.683Z,38.47
2017-07-26T01:47:21.214Z,39.70
2017-07-26T01:49:48.828Z,37.03
2017-07-26T01:52:16.364Z,42.20
2017-07-26T01:54:43.943Z,36.07
2017-07-26T01:57:11.480Z,40.60
2017-07-26T01:59:39.024Z,36.23
2017-07-26T02:02:06.603Z,39.87
2017-07-26T02:04:34.138Z,34.47
2017-07-26T02:07:01.678Z,41.40
2017-07-26T02:09:30.030Z,37.70
2017-07-26T02:11:57.564Z,40.10
2017-07-26T02:14:25.101Z,36.60
2017-07-26T02:16:52.673Z,37.53
2017-07-26T02:19:20.215Z,38.73
2017-07-26T02:21:47.789Z,43.83
2017-07-26T02:24:15.325Z,47.50
2017-07-26T02:26:43.654Z,38.73
2017-07-26T02:29:11.195Z,36.43
2017-07-26T02:31:38.780Z,34.60
2017-07-26T02:34:06.319Z,32.70
2017-07-26T02:36:33.857Z,39.03
2017-07-26T02:39:01.430Z,39.30
2017-07-26T02:41:28.976Z,37.23
2017-07-26T02:43:56.554Z,36.53
2017-07-26T02:46:24.090Z,33.90
2017-07-26T02:48:51.625Z,30.17
2017-07-26T02:51:19.962Z,33.13
2017-07-26T02:53:47.542Z,32.00
2017-07-26T02:56:15.078Z,36.80
2017-07-26T02:58:42.617Z,34.73
2017-07-26T03:01:10.199Z,36.80
2017-07-26T03:03:37.739Z,38.17
2017-07-26T03:06:05.277Z,38.57
2017-07-26T03:08:32.855Z,37.77
2017-07-26T03:11:00.396Z,35.93
2017-07-26T03:13:27.939Z,37.40
2017-07-26T03:15:56.274Z,39.77
2017-07-26T03:18:23.812Z,39.53
2017-07-26T03:20:51.386Z,38.20
2017-07-26T03:23:18.932Z,37.00
2017-07-26T03:25:46.469Z,37.87
2017-07-26T03:28:14.806Z,41.80
2017-07-26T03:30:42.375Z,41.53
2017-07-26T03:33:09.910Z,37.57
2017-07-26T03:35:37.478Z,37.00
2017-07-26T03:38:05.025Z,43.00
2017-07-26T03:40:32.599Z,35.27
2017-07-26T03:43:00.183Z,41.03
2017-07-26T03:45:27.724Z,34.43
2017-07-26T03:47:55.262Z,35.73
2017-07-26T03:50:22.845Z,35.97
2017-07-26T03:52:50.383Z,41.20
2017-07-26T03:55:17.922Z,38.47
2017-07-26T03:57:45.487Z,43.43
2017-07-26T04:00:13.027Z,40.30
2017-07-26T04:02:40.608Z,33.00
2017-07-26T04:05:08.150Z,31.40
2017-07-26T04:07:35.690Z,36.90
2017-07-26T04:10:04.035Z,34.50
2017-07-26T04:12:31.574Z,42.37
2017-07-26T04:14:59.107Z,29.37
2017-07-26T04:17:26.680Z,44.30
2017-07-26T04:19:54.226Z,45.13
2017-07-26T04:22:21.759Z,31.43
2017-07-26T04:24:50.090Z,31.63
2017-07-26T04:27:17.681Z,30.13
2017-07-26T04:29:45.222Z,34.40
2017-07-26T04:32:12.789Z,33.20
2017-07-26T04:34:40.327Z,34.60
2017-07-26T04:37:07.899Z,33.10
2017-07-26T04:39:35.506Z,32.83
2017-07-26T04:42:03.805Z,30.37
2017-07-26T04:44:32.674Z,26.70
2017-07-26T04:47:01.009Z,28.97
2017-07-26T04:49:28.581Z,25.03
2017-07-26T04:51:56.118Z,32.07
2017-07-26T04:54:23.658Z,30.60
2017-07-26T04:56:51.237Z,29.30
2017-07-26T04:59:18.815Z,29.07
2017-07-26T05:01:46.355Z,32.43
2017-07-26T05:04:13.896Z,29.20
2017-07-26T05:06:41.469Z,30.23
2017-07-26T05:09:09.042Z,28.47
2017-07-26T05:11:36.623Z,30.83
2017-07-26T05:14:04.172Z,29.17
2017-07-26T05:16:31.708Z,30.27
2017-07-26T05:18:59.288Z,31.43
2017-07-26T05:21:26.831Z,22.63
2017-07-26T05:23:54.373Z,24.93
2017-07-26T05:26:21.943Z,21.90
2017-07-26T05:28:49.589Z,25.77
2017-07-26T05:31:17.127Z,23.57
2017-07-26T05:33:45.444Z,44.40
2017-07-26T05:36:13.030Z,28.00
2017-07-26T05:38:40.566Z,25.70
2017-07-26T05:41:08.107Z,27.93
2017-07-26T05:43:35.682Z,25.87
2017-07-26T05:46:03.221Z,23.70
2017-07-26T05:48:30.779Z,28.67
2017-07-26T05:50:58.354Z,26.73
2017-07-26T05:53:26.486Z,28.30
2017-07-26T05:55:54.061Z,31.00
2017-07-26T05:58:22.404Z,28.13
2017-07-26T06:00:49.942Z,24.33
2017-07-26T06:03:17.485Z,27.17
2017-07-26T06:05:45.062Z,29.40
2017-07-26T06:08:12.600Z,23.97
2017-07-26T06:10:40.135Z,24.80
2017-07-26T06:13:07.756Z,21.10
2017-07-26T06:15:35.300Z,24.00
2017-07-26T06:18:03.657Z,22.33
2017-07-26T06:20:31.242Z,25.50
2017-07-26T06:22:58.781Z,25.70
2017-07-26T06:25:26.319Z,24.23
2017-07-26T06:27:54.781Z,30.17
2017-07-26T06:30:23.091Z,20.60
2017-07-26T06:32:50.622Z,24.67
2017-07-26T06:35:18.276Z,21.53
2017-07-26T06:37:46.798Z,23.57
2017-07-26T06:40:14.341Z,29.13
2017-07-26T06:42:42.677Z,23.43
2017-07-26T06:45:10.262Z,28.97
2017-07-26T06:47:37.805Z,24.63
2017-07-26T06:50:05.346Z,25.43
2017-07-26T06:52:32.926Z,28.10
2017-07-26T06:55:00.468Z,25.20
2017-07-26T06:57:28.004Z,30.10
2017-07-26T06:59:55.598Z,25.37
2017-07-26T07:02:23.135Z,28.37
2017-07-26T07:04:50.701Z,24.20
2017-07-26T07:07:18.282Z,31.50
2017-07-26T07:09:45.828Z,21.17
2017-07-26T07:12:13.367Z,23.57
2017-07-26T07:14:40.942Z,20.03
2017-07-26T07:17:08.486Z,16.27
2017-07-26T07:19:36.026Z,17.90
2017-07-26T07:22:03.603Z,20.67
2017-07-26T07:24:31.167Z,19.90
2017-07-26T07:26:58.745Z,22.03
2017-07-26T07:29:26.286Z,15.57
2017-07-26T07:31:53.830Z,16.10
2017-07-26T07:34:21.438Z,19.33
2017-07-26T07:36:48.974Z,21.93
2017-07-26T07:39:16.511Z,23.87
2017-07-26T07:41:44.086Z,16.73
2017-07-26T07:44:11.628Z,21.47
2017-07-26T07:46:39.211Z,22.87
2017-07-26T07:49:06.750Z,16.47
2017-07-26T07:51:34.285Z,24.23
2017-07-26T07:54:01.945Z,12.43
2017-07-26T07:56:29.531Z,13.17
2017-07-26T07:58:57.485Z,23.20
2017-07-26T08:01:27.392Z,17.57
2017-07-26T08:03:55.734Z,29.40
2017-07-26T08:06:23.302Z,22.17
2017-07-26T08:08:51.007Z,23.93
2017-07-26T08:11:18.708Z,26.00
2017-07-26T08:13:46.364Z,24.80
2017-07-26T08:16:13.897Z,27.17
2017-07-26T08:18:42.961Z,22.40
2017-07-26T08:21:11.173Z,22.97
2017-07-26T08:23:39.460Z,23.10
2017-07-26T08:26:07.540Z,22.87
2017-07-26T08:28:42.058Z,19.53
2017-07-26T08:31:11.255Z,24.47
2017-07-26T08:33:42.095Z,21.27
2017-07-26T08:36:11.722Z,21.20
2017-07-26T08:38:42.845Z,22.60
2017-07-26T08:41:13.550Z,24.70
2017-07-26T08:43:42.821Z,20.57
2017-07-26T08:46:11.848Z,19.17
2017-07-26T08:48:41.182Z,14.80
2017-07-26T08:51:11.419Z,18.30
2017-07-26T08:53:40.375Z,16.77
2017-07-26T08:56:11.448Z,16.10
2017-07-26T08:58:41.050Z,22.43
2017-07-26T09:01:11.258Z,14.13
2017-07-26T09:03:42.010Z,17.40
2017-07-26T09:06:13.266Z,16.30
2017-07-26T09:08:42.859Z,15.23
2017-07-26T09:11:13.704Z,19.90
2017-07-26T09:13:45.428Z,17.40
2017-07-26T09:16:16.974Z,18.93
2017-07-26T09:18:47.129Z,16.77
2017-07-26T09:21:17.130Z,16.60
2017-07-26T09:23:47.198Z,15.17
2017-07-26T09:26:16.504Z,16.47
2017-07-26T09:28:45.392Z,20.23
2017-07-26T09:31:13.230Z,15.90
2017-07-26T09:33:40.976Z,14.00
2017-07-26T09:36:08.746Z,14.30
2017-07-26T09:38:36.586Z,18.00
2017-07-26T09:41:04.333Z,15.10
2017-07-26T09:43:32.835Z,14.20
2017-07-26T09:46:01.793Z,18.33
2017-07-26T09:48:29.926Z,11.23
2017-07-26T09:50:58.437Z,13.30
2017-07-26T09:53:26.081Z,13.03
2017-07-26T09:55:53.639Z,17.53
2017-07-26T09:58:21.241Z,12.53
2017-07-26T10:00:49.565Z,9.80
2017-07-26T10:03:17.147Z,12.50
2017-07-26T10:05:44.754Z,9.13
2017-07-26T10:08:12.293Z,8.77
2017-07-26T10:10:39.852Z,9.60
2017-07-26T10:13:08.238Z,9.00
2017-07-26T10:15:36.582Z,11.13
2017-07-26T10:18:04.145Z,16.77
2017-07-26T10:20:31.726Z,10.93
2017-07-26T10:23:00.086Z,8.97
2017-07-26T10:25:27.650Z,10.53
2017-07-26T10:27:55.207Z,6.90
2017-07-26T10:30:23.037Z,7.30
2017-07-26T10:32:50.611Z,11.40
2017-07-26T10:35:18.160Z,5.67
2017-07-26T10:37:45.742Z,7.87
2017-07-26T10:40:13.486Z,6.07
2017-07-26T10:42:41.085Z,7.50
2017-07-26T10:45:08.658Z,4.97
2017-07-26T10:47:37.028Z,8.93
2017-07-26T10:50:04.563Z,10.53
2017-07-26T10:52:32.094Z,4.73
2017-07-26T10:54:59.681Z,10.43
2017-07-26T10:57:27.219Z,6.20
2017-07-26T10:59:54.755Z,7.93
2017-07-26T11:02:22.332Z,7.37
2017-07-26T11:04:49.866Z,18.87
2017-07-26T11:07:17.414Z,11.83
2017-07-26T11:09:44.983Z,8.83
2017-07-26T11:12:13.278Z,7.90
2017-07-26T11:14:40.824Z,14.60
2017-07-26T11:17:08.390Z,8.70
2017-07-26T11:19:35.928Z,11.47
2017-07-26T11:22:03.511Z,8.77
2017-07-26T11:24:31.074Z,7.67
2017-07-26T11:26:58.621Z,8.30
2017-07-26T11:29:26.201Z,11.50
2017-07-26T11:31:53.735Z,7.07
2017-07-26T11:34:22.062Z,7.73
2017-07-26T11:36:49.639Z,7.90
2017-07-26T11:39:17.198Z,10.23
2017-07-26T11:41:44.771Z,6.70
2017-07-26T11:44:12.309Z,7.60
2017-07-26T11:46:39.899Z,8.40
2017-07-26T11:49:07.495Z,10.90
2017-07-26T11:51:35.069Z,12.23
2017-07-26T11:54:02.654Z,15.53
2017-07-26T11:56:30.208Z,11.50
2017-07-26T11:58:57.833Z,10.57
2017-07-26T12:01:25.436Z,11.87
2017-07-26T12:03:52.969Z,18.80
2017-07-26T12:06:20.497Z,10.10
2017-07-26T12:08:48.113Z,9.93
2017-07-26T12:11:15.652Z,6.77
2017-07-26T12:13:43.197Z,7.70
2017-07-26T12:16:12.613Z,7.73
2017-07-26T12:18:42.882Z,6.10
2017-07-26T12:21:10.989Z,6.43
2017-07-26T12:23:38.702Z,9.23
2017-07-26T12:26:06.472Z,6.50
2017-07-26T12:28:34.340Z,6.57
2017-07-26T12:31:02.476Z,6.40
2017-07-26T12:33:30.470Z,5.33
2017-07-26T12:35:59.338Z,7.60
2017-07-26T12:38:27.920Z,9.07
2017-07-26T12:40:57.097Z,5.53
2017-07-26T12:43:24.811Z,5.67
2017-07-26T12:45:52.605Z,6.20
2017-07-26T12:48:20.232Z,9.07
2017-07-26T12:50:47.774Z,4.93
2017-07-26T12:53:15.562Z,6.87
2017-07-26T12:55:43.334Z,9.10
2017-07-26T12:58:17.115Z,7.70
2017-07-26T13:00:44.790Z,8.27
2017-07-26T13:03:12.339Z,7.20
2017-07-26T13:05:39.904Z,6.70
2017-07-26T13:08:07.442Z,6.37
2017-07-26T13:10:35.019Z,8.27
2017-07-26T13:13:02.565Z,9.03
2017-07-26T13:15:30.123Z,6.30
2017-07-26T13:17:57.710Z,7.93
2017-07-26T13:20:25.252Z,6.50
2017-07-26T13:22:52.806Z,8.70
2017-07-26T13:25:21.546Z,4.07
2017-07-26T13:27:49.795Z,5.07
2017-07-26T13:30:17.674Z,8.10
2017-07-26T13:32:45.259Z,5.50
2017-07-26T13:35:13.559Z,5.83
2017-07-26T13:37:41.104Z,4.90
2017-07-26T13:40:09.982Z,4.20
2017-07-26T13:42:38.296Z,5.07
2017-07-26T13:45:05.839Z,7.80
2017-07-26T13:47:33.418Z,4.77
2017-07-26T13:50:00.970Z,2.90
2017-07-26T13:52:28.563Z,3.43
2017-07-26T13:54:56.117Z,8.83
2017-07-26T13:57:23.714Z,6.47
2017-07-26T13:59:52.061Z,5.10
2017-07-26T14:02:19.609Z,5.87
2017-07-26T14:04:47.154Z,6.37
2017-07-26T14:07:14.754Z,4.07
2017-07-26T14:09:42.299Z,5.37
2017-07-26T14:12:09.852Z,6.40
2017-07-26T14:14:37.425Z,3.73
2017-07-26T14:17:04.973Z,4.53
2017-07-26T14:19:32.519Z,6.63
2017-07-26T14:22:00.089Z,4.87
2017-07-26T14:24:27.626Z,4.30
2017-07-26T14:26:55.158Z,5.60
2017-07-26T14:29:22.725Z,3.60
2017-07-26T14:31:50.286Z,3.50
2017-07-26T14:34:17.819Z,3.03
2017-07-26T14:36:46.165Z,10.30
2017-07-26T14:39:13.706Z,3.17
2017-07-26T14:41:41.238Z,7.60
2017-07-26T14:44:08.810Z,5.00
2017-07-26T14:46:36.341Z,6.33
2017-07-26T14:49:04.637Z,4.47
2017-07-26T14:51:32.205Z,5.20
2017-07-26T14:53:59.733Z,8.93
2017-07-26T14:56:27.297Z,5.00
2017-07-26T14:58:55.638Z,6.90
2017-07-26T15:01:23.165Z,4.13
2017-07-26T15:03:50.730Z,5.43
2017-07-26T15:06:18.257Z,5.90
2017-07-26T15:08:46.603Z,6.70
2017-07-26T15:11:14.135Z,5.30
2017-07-26T15:13:41.666Z,8.47
2017-07-26T15:16:09.242Z,5.17
2017-07-26T15:18:37.630Z,6.83
2017-07-26T15:21:05.162Z,4.50
2017-07-26T15:23:32.749Z,5.23
2017-07-26T15:26:00.274Z,6.80
2017-07-26T15:28:28.570Z,9.47
2017-07-26T15:30:56.169Z,15.00
2017-07-26T15:33:23.706Z,6.30
2017-07-26T15:35:51.245Z,7.00
2017-07-26T15:38:18.806Z,6.40
2017-07-26T15:40:46.335Z,7.90
2017-07-26T15:43:14.678Z,8.00
2017-07-26T15:45:42.205Z,8.10
2017-07-26T15:48:11.877Z,9.80
2017-07-26T15:50:39.454Z,8.00
2017-07-26T15:53:07.758Z,8.90
2017-07-26T15:55:35.286Z,8.50
2017-07-26T15:58:03.639Z,8.10
2017-07-26T16:00:31.175Z,13.13
2017-07-26T16:02:58.712Z,8.83
2017-07-26T16:05:26.887Z,8.17
2017-07-26T16:07:54.425Z,10.00
2017-07-26T16:10:22.002Z,10.80
2017-07-26T16:12:49.533Z,11.70
2017-07-26T16:15:17.062Z,9.60
2017-07-26T16:17:44.621Z,11.83
2017-07-26T16:20:12.150Z,7.50
2017-07-26T16:22:39.724Z,9.77
2017-07-26T16:25:07.259Z,8.20
2017-07-26T16:27:34.799Z,9.10
2017-07-26T16:30:02.375Z,7.23
2017-07-26T16:32:29.913Z,11.40
2017-07-26T16:34:58.211Z,8.30
2017-07-26T16:37:25.769Z,8.83
2017-07-26T16:39:54.207Z,11.67
2017-07-26T16:42:21.777Z,7.30
2017-07-26T16:44:49.310Z,8.17
2017-07-26T16:47:16.842Z,6.70
2017-07-26T16:49:44.407Z,8.70
2017-07-26T16:52:11.941Z,9.90
2017-07-26T16:54:39.507Z,9.30
2017-07-26T16:57:07.080Z,7.23
2017-07-26T16:59:34.642Z,6.27
2017-07-26T17:02:02.171Z,6.77
2017-07-26T17:04:30.146Z,6.50
2017-07-26T17:06:57.680Z,12.90
2017-07-26T17:09:25.209Z,7.33
2017-07-26T19:13:08.238Z,5.70
2017-07-26T19:15:35.993Z,4.87
2017-07-26T19:18:03.574Z,5.60
2017-07-26T19:20:31.101Z,7.50
2017-07-26T19:22:58.675Z,9.70
2017-07-26T19:25:26.215Z,5.10
2017-07-26T19:27:53.791Z,6.47
2017-07-26T19:30:21.359Z,6.43
2017-07-26T19:32:49.726Z,6.70
2017-07-26T19:35:17.297Z,8.57
2017-07-26T19:37:44.878Z,6.23
2017-07-26T19:40:12.463Z,5.40
2017-07-26T19:42:40.771Z,5.70
2017-07-26T19:45:08.304Z,5.00
2017-07-26T19:47:35.886Z,7.80
2017-07-26T19:50:03.426Z,5.90
2017-07-26T19:52:30.990Z,7.57
2017-07-26T19:54:58.870Z,8.53
2017-07-26T19:57:26.431Z,7.37
2017-07-26T19:59:54.002Z,5.70
2017-07-26T20:02:21.618Z,7.50
2017-07-26T20:04:49.958Z,5.17
2017-07-26T20:07:17.528Z,6.80
2017-07-26T20:09:45.844Z,5.53
2017-07-26T20:12:13.432Z,6.10
2017-07-26T20:14:41.137Z,6.23
2017-07-26T20:17:11.530Z,5.40
2017-07-26T20:19:39.109Z,6.13
2017-07-26T20:22:07.459Z,7.93
2017-07-26T20:24:35.032Z,5.30
2017-07-26T20:27:02.566Z,6.97
2017-07-26T20:29:30.127Z,7.17
2017-07-26T20:31:57.700Z,7.77
2017-07-26T20:34:25.242Z,5.93
2017-07-26T20:36:52.869Z,7.63
2017-07-26T20:39:21.176Z,6.30
2017-07-26T20:41:48.709Z,8.83
2017-07-26T20:44:16.278Z,7.60
2017-07-26T20:46:44.039Z,5.03
2017-07-26T20:49:11.615Z,4.80
2017-07-26T20:51:39.157Z,11.00
2017-07-26T20:54:06.702Z,5.50
2017-07-26T20:56:34.294Z,5.37
2017-07-26T20:59:01.830Z,7.60
2017-07-26T21:01:29.371Z,10.40
2017-07-26T21:03:57.038Z,9.70
2017-07-26T21:06:25.334Z,7.17
2017-07-26T21:08:52.882Z,11.90
2017-07-26T21:11:20.467Z,17.93
2017-07-26T21:13:47.995Z,9.43
2017-07-26T21:16:15.539Z,12.30
2017-07-26T21:18:44.078Z,15.37
2017-07-26T21:21:11.646Z,11.17
2017-07-26T21:23:39.229Z,7.47
2017-07-26T21:26:06.767Z,7.63
2017-07-26T21:28:34.302Z,8.60
2017-07-26T21:31:01.903Z,8.20
2017-07-26T21:33:29.438Z,14.33
2017-07-26T21:35:57.010Z,7.30
2017-07-26T21:38:24.545Z,8.43
2017-07-26T21:40:52.085Z,8.77
2017-07-26T21:43:19.663Z,8.10
2017-07-26T21:45:47.222Z,9.43
2017-07-26T21:48:14.767Z,7.70
2017-07-26T21:50:42.370Z,10.43
2017-07-26T21:53:09.902Z,8.90
2017-07-26T21:55:37.439Z,5.80
2017-07-26T21:58:05.491Z,7.30
2017-07-26T22:00:33.032Z,10.70
2017-07-26T22:03:00.573Z,9.03
2017-07-26T22:05:28.161Z,7.63
2017-07-26T22:07:55.702Z,5.17
2017-07-26T22:10:23.248Z,5.00
2017-07-26T22:12:50.822Z,5.80
2017-07-26T22:15:18.370Z,4.17
2017-07-26T22:17:45.954Z,4.87
2017-07-26T22:20:13.490Z,6.30
2017-07-26T22:22:41.793Z,6.13
2017-07-26T22:25:09.383Z,7.30
2017-07-26T22:27:36.931Z,4.73
2017-07-26T22:30:04.469Z,5.07
2017-07-26T22:32:32.070Z,4.40
2017-07-26T22:34:59.611Z,5.27
2017-07-26T22:37:27.196Z,6.80
2017-07-26T22:39:54.740Z,4.03
2017-07-26T22:42:22.317Z,3.87
2017-07-26T22:44:49.858Z,3.43
2017-07-26T22:47:17.422Z,3.67
2017-07-26T22:49:45.000Z,3.93
2017-07-26T22:52:12.541Z,7.30
2017-07-26T22:54:40.434Z,5.07
2017-07-26T22:57:08.014Z,17.13
2017-07-26T22:59:36.012Z,5.50
2017-07-26T23:02:03.622Z,3.90
2017-07-26T23:04:31.165Z,8.33
2017-07-26T23:06:58.703Z,5.50
2017-07-26T23:09:26.270Z,5.60
2017-07-26T23:11:53.803Z,4.13
2017-07-26T23:14:21.374Z,5.47
2017-07-26T23:16:48.906Z,4.50
2017-07-26T23:19:16.456Z,8.63
2017-07-26T23:21:44.033Z,5.60
2017-07-26T23:24:11.805Z,5.90
2017-07-26T23:26:39.341Z,4.40
2017-07-26T23:29:06.906Z,3.93
2017-07-26T23:31:34.441Z,5.30
2017-07-26T23:34:02.068Z,4.13
2017-07-26T23:36:31.114Z,3.60
2017-07-26T23:38:58.661Z,5.10
2017-07-26T23:41:27.006Z,7.03
2017-07-26T23:43:54.538Z,5.93
2017-07-26T23:46:22.127Z,4.70
2017-07-26T23:48:49.669Z,4.50
2017-07-26T23:51:17.209Z,4.83
2017-07-26T23:53:44.796Z,4.90
2017-07-26T23:56:12.340Z,3.80
2017-07-26T23:58:39.914Z,4.33
